Bayshore, New York
Current Conditions -  °F | °C
As of 8:53 PM on Tuesday 21 Oct 2014 (Local Time) from KFRG Reporting Station
Broken Clouds Broken Clouds  
Wind Chill: 13°   Ceiling: 10000
Heat Index: 13°   Visibility: 10mi
Dew Point: 12°   Wind: 8mph
Humidity: 93%   Direction: 20°NNE
Pressure: 29.88"   Gusts: NA
Location:  40.7379°N, 73.2632°W
Report Text: KFRG 220053Z 02007KT 10SM BKN100 13/12 A2988 RMK AO2 LTG DSNT W SLP120 T01280117
Loading
Personal Weather Stations






























Interactive Weather Map
Tropical Storm Tracking
New forecast layout! Learn more

10-Day Weather Forecast

Advertisements
Track Severe Weather on mobile